logo
Search for airport 
image banner adimage banner adimage banner ad
image banner ad

HKGL - Kore Galana Ranch

Located in , Kenya

ICAO - , IATA -

Data provided by Airmate  

General information

Coordinates: S2°44'0" E39°31'60"
Elevation is 606 feet MSL.
 
View others Airports in Coast Province

Operational data

Special qualification required
Current time UTC:
Current local time:
Weather at : - ( 0 km )
METAR: ROTM 180756Z 35012G18KT 9999 BKN027 24/18 A2978 RMK SLP086 XWND ADV T02440178
View NOTAMs / SUP AIP / TFR affecting this airport [VIEW]
Communications frequencies: [VIEW]

Runways:

Airport contact information

Address: Kenya

Satellite view of HKGL